sensor_id;sensor_type;location;lat;lon;timestamp;temperature;humidity
2112;DHT22;1062;52.538;13.400;2023-05-29T00:01:33;14.00;99.90
2112;DHT22;1062;52.538;13.400;2023-05-29T00:03:59;14.00;99.90
2112;DHT22;1062;52.538;13.400;2023-05-29T00:06:25;13.90;99.90
2112;DHT22;1062;52.538;13.400;2023-05-29T00:08:50;13.90;99.90
2112;DHT22;1062;52.538;13.400;2023-05-29T00:11:16;13.90;99.90
2112;DHT22;1062;52.538;13.400;2023-05-29T00:13:41;13.90;99.90
2112;DHT22;1062;52.538;13.400;2023-05-29T00:16:07;13.90;99.90
2112;DHT22;1062;52.538;13.400;2023-05-29T00:18:35;13.80;99.90
2112;DHT22;1062;52.538;13.400;2023-05-29T00:21:01;13.80;99.90
2112;DHT22;1062;52.538;13.400;2023-05-29T00:23:27;13.70;99.90
2112;DHT22;1062;52.538;13.400;2023-05-29T00:25:53;13.70;99.90
2112;DHT22;1062;52.538;13.400;2023-05-29T00:28:18;13.60;99.90
2112;DHT22;1062;52.538;13.400;2023-05-29T00:30:44;13.60;99.90
2112;DHT22;1062;52.538;13.400;2023-05-29T00:33:10;13.50;99.90
2112;DHT22;1062;52.538;13.400;2023-05-29T00:35:36;13.50;99.90
2112;DHT22;1062;52.538;13.400;2023-05-29T00:38:01;13.50;99.90
2112;DHT22;1062;52.538;13.400;2023-05-29T00:40:27;13.50;99.90
2112;DHT22;1062;52.538;13.400;2023-05-29T00:42:53;13.50;99.90
2112;DHT22;1062;52.538;13.400;2023-05-29T00:45:18;13.50;99.90
2112;DHT22;1062;52.538;13.400;2023-05-29T00:47:44;13.50;99.90
2112;DHT22;1062;52.538;13.400;2023-05-29T00:50:11;13.40;99.90
2112;DHT22;1062;52.538;13.400;2023-05-29T00:52:39;13.40;99.90
2112;DHT22;1062;52.538;13.400;2023-05-29T00:55:06;13.40;99.90
2112;DHT22;1062;52.538;13.400;2023-05-29T00:57:34;13.40;99.90
2112;DHT22;1062;52.538;13.400;2023-05-29T01:00:00;13.40;99.90
2112;DHT22;1062;52.538;13.400;2023-05-29T01:02:29;13.30;99.90
2112;DHT22;1062;52.538;13.400;2023-05-29T01:04:56;13.30;99.90
2112;DHT22;1062;52.538;13.400;2023-05-29T01:07:22;13.30;99.90
2112;DHT22;1062;52.538;13.400;2023-05-29T01:09:47;13.20;99.90
2112;DHT22;1062;52.538;13.400;2023-05-29T01:12:33;13.20;99.90
2112;DHT22;1062;52.538;13.400;2023-05-29T01:21:08;13.00;99.90
2112;DHT22;1062;52.538;13.400;2023-05-29T01:29:07;12.90;99.90
2112;DHT22;1062;52.538;13.400;2023-05-29T01:31:34;12.90;99.90
2112;DHT22;1062;52.538;13.400;2023-05-29T01:34:01;12.90;99.90
2112;DHT22;1062;52.538;13.400;2023-05-29T01:36:26;12.80;99.90
2112;DHT22;1062;52.538;13.400;2023-05-29T01:38:53;12.80;99.90
2112;DHT22;1062;52.538;13.400;2023-05-29T01:41:21;12.70;99.90
2112;DHT22;1062;52.538;13.400;2023-05-29T01:43:49;12.70;99.90
2112;DHT22;1062;52.538;13.400;2023-05-29T01:46:16;12.70;99.90
2112;DHT22;1062;52.538;13.400;2023-05-29T01:48:42;12.60;99.90
2112;DHT22;1062;52.538;13.400;2023-05-29T01:51:09;12.60;99.90
2112;DHT22;1062;52.538;13.400;2023-05-29T01:53:37;12.50;99.90
2112;DHT22;1062;52.538;13.400;2023-05-29T01:56:05;12.50;99.90
2112;DHT22;1062;52.538;13.400;2023-05-29T01:58:31;12.50;99.90
2112;DHT22;1062;52.538;13.400;2023-05-29T02:00:57;12.40;99.90
2112;DHT22;1062;52.538;13.400;2023-05-29T02:03:23;12.40;99.90
2112;DHT22;1062;52.538;13.400;2023-05-29T02:05:49;12.40;99.90
2112;DHT22;1062;52.538;13.400;2023-05-29T02:08:15;12.30;99.90
2112;DHT22;1062;52.538;13.400;2023-05-29T02:10:41;12.30;99.90
2112;DHT22;1062;52.538;13.400;2023-05-29T02:13:06;12.30;99.90
2112;DHT22;1062;52.538;13.400;2023-05-29T02:15:32;12.30;99.90
2112;DHT22;1062;52.538;13.400;2023-05-29T02:17:58;12.30;99.90
2112;DHT22;1062;52.538;13.400;2023-05-29T02:20:26;12.30;99.90
2112;DHT22;1062;52.538;13.400;2023-05-29T02:22:52;12.20;99.90
2112;DHT22;1062;52.538;13.400;2023-05-29T02:25:18;12.20;99.90
2112;DHT22;1062;52.538;13.400;2023-05-29T02:27:44;12.20;99.90
2112;DHT22;1062;52.538;13.400;2023-05-29T02:30:09;12.10;99.90
2112;DHT22;1062;52.538;13.400;2023-05-29T02:32:36;12.10;99.90
2112;DHT22;1062;52.538;13.400;2023-05-29T02:35:02;12.10;99.90
2112;DHT22;1062;52.538;13.400;2023-05-29T02:37:28;12.10;99.90
2112;DHT22;1062;52.538;13.400;2023-05-29T02:39:53;12.10;99.90
2112;DHT22;1062;52.538;13.400;2023-05-29T02:42:19;12.10;99.90
2112;DHT22;1062;52.538;13.400;2023-05-29T02:44:44;12.00;99.90
2112;DHT22;1062;52.538;13.400;2023-05-29T02:47:10;12.00;99.90
2112;DHT22;1062;52.538;13.400;2023-05-29T02:49:36;12.00;99.90
2112;DHT22;1062;52.538;13.400;2023-05-29T02:52:01;12.00;99.90
2112;DHT22;1062;52.538;13.400;2023-05-29T02:54:27;11.90;99.90
2112;DHT22;1062;52.538;13.400;2023-05-29T02:56:53;11.90;99.90
2112;DHT22;1062;52.538;13.400;2023-05-29T02:59:18;11.90;99.90
2112;DHT22;1062;52.538;13.400;2023-05-29T03:01:44;11.80;99.90
2112;DHT22;1062;52.538;13.400;2023-05-29T03:04:11;11.80;99.90
2112;DHT22;1062;52.538;13.400;2023-05-29T03:06:36;11.80;99.90
2112;DHT22;1062;52.538;13.400;2023-05-29T03:09:02;11.80;99.90
2112;DHT22;1062;52.538;13.400;2023-05-29T03:11:30;11.80;99.90
2112;DHT22;1062;52.538;13.400;2023-05-29T03:13:56;11.80;99.90
2112;DHT22;1062;52.538;13.400;2023-05-29T03:16:22;11.70;99.90
2112;DHT22;1062;52.538;13.400;2023-05-29T03:18:47;11.70;99.90
2112;DHT22;1062;52.538;13.400;2023-05-29T03:21:13;11.70;99.90
2112;DHT22;1062;52.538;13.400;2023-05-29T03:23:39;11.70;99.90
2112;DHT22;1062;52.538;13.400;2023-05-29T03:26:04;11.70;99.90
2112;DHT22;1062;52.538;13.400;2023-05-29T03:28:31;11.60;99.90
2112;DHT22;1062;52.538;13.400;2023-05-29T03:30:57;11.60;99.90
2112;DHT22;1062;52.538;13.400;2023-05-29T03:33:22;11.60;99.90
2112;DHT22;1062;52.538;13.400;2023-05-29T03:35:48;11.60;99.90
2112;DHT22;1062;52.538;13.400;2023-05-29T03:38:14;11.60;99.90
2112;DHT22;1062;52.538;13.400;2023-05-29T03:40:40;11.70;99.90
2112;DHT22;1062;52.538;13.400;2023-05-29T03:43:05;11.70;99.90
2112;DHT22;1062;52.538;13.400;2023-05-29T03:45:31;11.70;99.90
2112;DHT22;1062;52.538;13.400;2023-05-29T03:47:57;11.80;99.90
2112;DHT22;1062;52.538;13.400;2023-05-29T03:50:22;11.90;99.90
2112;DHT22;1062;52.538;13.400;2023-05-29T03:52:48;12.00;99.90
2112;DHT22;1062;52.538;13.400;2023-05-29T03:55:14;12.00;99.90
2112;DHT22;1062;52.538;13.400;2023-05-29T03:57:41;12.10;99.90
2112;DHT22;1062;52.538;13.400;2023-05-29T04:00:11;12.10;99.90
2112;DHT22;1062;52.538;13.400;2023-05-29T04:02:38;12.20;99.90
2112;DHT22;1062;52.538;13.400;2023-05-29T04:05:07;12.40;99.90
2112;DHT22;1062;52.538;13.400;2023-05-29T04:07:37;12.40;99.90
2112;DHT22;1062;52.538;13.400;2023-05-29T04:10:04;12.50;99.90
2112;DHT22;1062;52.538;13.400;2023-05-29T04:12:31;12.60;99.90
2112;DHT22;1062;52.538;13.400;2023-05-29T04:14:57;12.70;99.90
2112;DHT22;1062;52.538;13.400;2023-05-29T04:17:22;12.80;99.90
2112;DHT22;1062;52.538;13.400;2023-05-29T04:19:48;12.90;99.90
2112;DHT22;1062;52.538;13.400;2023-05-29T04:22:14;13.10;99.90
2112;DHT22;1062;52.538;13.400;2023-05-29T04:24:40;13.40;99.90
2112;DHT22;1062;52.538;13.400;2023-05-29T04:27:07;13.50;99.90
2112;DHT22;1062;52.538;13.400;2023-05-29T04:29:34;13.80;99.90
2112;DHT22;1062;52.538;13.400;2023-05-29T04:32:00;14.30;99.90
2112;DHT22;1062;52.538;13.400;2023-05-29T04:34:31;14.30;99.90
2112;DHT22;1062;52.538;13.400;2023-05-29T04:36:57;14.60;99.90
2112;DHT22;1062;52.538;13.400;2023-05-29T04:39:24;14.50;99.90
2112;DHT22;1062;52.538;13.400;2023-05-29T04:41:50;14.70;99.90
2112;DHT22;1062;52.538;13.400;2023-05-29T04:44:17;14.60;99.90
2112;DHT22;1062;52.538;13.400;2023-05-29T04:46:43;14.40;99.90
2112;DHT22;1062;52.538;13.400;2023-05-29T04:49:12;14.50;99.90
2112;DHT22;1062;52.538;13.400;2023-05-29T04:51:41;14.70;99.90
2112;DHT22;1062;52.538;13.400;2023-05-29T04:54:07;14.70;99.90
2112;DHT22;1062;52.538;13.400;2023-05-29T04:56:34;14.80;99.90
2112;DHT22;1062;52.538;13.400;2023-05-29T04:59:00;15.00;99.90
2112;DHT22;1062;52.538;13.400;2023-05-29T05:01:26;15.00;99.90
2112;DHT22;1062;52.538;13.400;2023-05-29T05:03:51;14.80;99.90
2112;DHT22;1062;52.538;13.400;2023-05-29T05:06:21;14.80;99.90
2112;DHT22;1062;52.538;13.400;2023-05-29T05:08:47;14.80;99.90
2112;DHT22;1062;52.538;13.400;2023-05-29T05:11:12;15.20;99.90
2112;DHT22;1062;52.538;13.400;2023-05-29T05:13:39;15.60;99.90
2112;DHT22;1062;52.538;13.400;2023-05-29T05:16:05;15.90;99.90
2112;DHT22;1062;52.538;13.400;2023-05-29T05:18:31;16.40;99.90
2112;DHT22;1062;52.538;13.400;2023-05-29T05:20:56;16.80;99.90
2112;DHT22;1062;52.538;13.400;2023-05-29T05:23:22;16.70;99.90
2112;DHT22;1062;52.538;13.400;2023-05-29T05:25:47;16.70;99.90
2112;DHT22;1062;52.538;13.400;2023-05-29T05:28:13;17.00;99.90
2112;DHT22;1062;52.538;13.400;2023-05-29T05:30:39;17.20;99.90
2112;DHT22;1062;52.538;13.400;2023-05-29T05:33:04;17.20;99.90
2112;DHT22;1062;52.538;13.400;2023-05-29T05:35:30;17.20;99.90
2112;DHT22;1062;52.538;13.400;2023-05-29T05:37:55;17.00;99.90
2112;DHT22;1062;52.538;13.400;2023-05-29T05:40:25;17.80;99.90
2112;DHT22;1062;52.538;13.400;2023-05-29T05:42:51;18.30;99.90
2112;DHT22;1062;52.538;13.400;2023-05-29T05:45:17;18.40;99.90
2112;DHT22;1062;52.538;13.400;2023-05-29T05:47:43;18.70;99.90
2112;DHT22;1062;52.538;13.400;2023-05-29T05:50:09;18.70;99.90
2112;DHT22;1062;52.538;13.400;2023-05-29T05:52:34;19.00;99.90
2112;DHT22;1062;52.538;13.400;2023-05-29T05:55:00;19.20;99.90
2112;DHT22;1062;52.538;13.400;2023-05-29T05:57:26;19.40;99.90
2112;DHT22;1062;52.538;13.400;2023-05-29T05:59:52;19.90;99.90
2112;DHT22;1062;52.538;13.400;2023-05-29T06:02:19;20.10;99.50
2112;DHT22;1062;52.538;13.400;2023-05-29T06:04:45;20.10;99.90
2112;DHT22;1062;52.538;13.400;2023-05-29T06:07:11;20.90;98.90
2112;DHT22;1062;52.538;13.400;2023-05-29T06:09:37;20.70;98.20
2112;DHT22;1062;52.538;13.400;2023-05-29T06:12:03;21.30;97.20
2112;DHT22;1062;52.538;13.400;2023-05-29T06:14:28;22.00;96.00
2112;DHT22;1062;52.538;13.400;2023-05-29T06:16:54;22.30;95.10
2112;DHT22;1062;52.538;13.400;2023-05-29T06:19:20;21.80;94.10
2112;DHT22;1062;52.538;13.400;2023-05-29T06:21:46;21.60;93.30
2112;DHT22;1062;52.538;13.400;2023-05-29T06:24:12;21.40;93.40
2112;DHT22;1062;52.538;13.400;2023-05-29T06:26:38;21.10;93.30
2112;DHT22;1062;52.538;13.400;2023-05-29T06:29:04;20.60;93.70
2112;DHT22;1062;52.538;13.400;2023-05-29T06:31:31;20.80;93.80
2112;DHT22;1062;52.538;13.400;2023-05-29T06:33:58;21.40;93.40
2112;DHT22;1062;52.538;13.400;2023-05-29T06:36:24;21.90;93.00
2112;DHT22;1062;52.538;13.400;2023-05-29T06:38:50;22.50;92.10
2112;DHT22;1062;52.538;13.400;2023-05-29T06:41:16;21.70;92.60
2112;DHT22;1062;52.538;13.400;2023-05-29T06:43:42;21.60;92.50
2112;DHT22;1062;52.538;13.400;2023-05-29T06:46:08;21.80;93.20
2112;DHT22;1062;52.538;13.400;2023-05-29T06:48:34;22.30;91.50
2112;DHT22;1062;52.538;13.400;2023-05-29T06:51:01;23.10;91.30
2112;DHT22;1062;52.538;13.400;2023-05-29T06:53:26;23.60;88.70
2112;DHT22;1062;52.538;13.400;2023-05-29T06:55:53;23.50;90.00
2112;DHT22;1062;52.538;13.400;2023-05-29T06:58:18;23.50;90.50
2112;DHT22;1062;52.538;13.400;2023-05-29T07:00:44;23.40;90.00
2112;DHT22;1062;52.538;13.400;2023-05-29T07:03:10;24.30;88.30
2112;DHT22;1062;52.538;13.400;2023-05-29T07:05:35;24.20;84.60
2112;DHT22;1062;52.538;13.400;2023-05-29T07:08:01;23.20;84.20
2112;DHT22;1062;52.538;13.400;2023-05-29T07:10:27;22.40;87.70
2112;DHT22;1062;52.538;13.400;2023-05-29T07:12:52;23.00;87.20
2112;DHT22;1062;52.538;13.400;2023-05-29T07:15:18;23.30;85.10
2112;DHT22;1062;52.538;13.400;2023-05-29T07:17:44;23.80;87.30
2112;DHT22;1062;52.538;13.400;2023-05-29T07:22:37;23.30;82.80
2112;DHT22;1062;52.538;13.400;2023-05-29T07:25:03;23.70;81.40
2112;DHT22;1062;52.538;13.400;2023-05-29T07:27:29;23.50;81.40
2112;DHT22;1062;52.538;13.400;2023-05-29T07:29:54;23.00;82.90
2112;DHT22;1062;52.538;13.400;2023-05-29T07:32:20;23.00;81.40
2112;DHT22;1062;52.538;13.400;2023-05-29T07:34:47;23.80;80.00
2112;DHT22;1062;52.538;13.400;2023-05-29T07:37:15;24.90;75.90
2112;DHT22;1062;52.538;13.400;2023-05-29T07:39:40;25.70;74.10
2112;DHT22;1062;52.538;13.400;2023-05-29T07:42:07;25.80;73.40
2112;DHT22;1062;52.538;13.400;2023-05-29T07:44:33;25.00;75.90
2112;DHT22;1062;52.538;13.400;2023-05-29T07:46:59;24.80;75.80
2112;DHT22;1062;52.538;13.400;2023-05-29T07:49:24;24.40;76.30
2112;DHT22;1062;52.538;13.400;2023-05-29T07:51:50;24.70;78.60
2112;DHT22;1062;52.538;13.400;2023-05-29T07:54:16;24.90;75.90
2112;DHT22;1062;52.538;13.400;2023-05-29T07:56:43;24.70;77.60
2112;DHT22;1062;52.538;13.400;2023-05-29T07:59:10;25.30;75.00
2112;DHT22;1062;52.538;13.400;2023-05-29T08:01:37;25.40;72.30
2112;DHT22;1062;52.538;13.400;2023-05-29T08:04:03;24.00;75.50
2112;DHT22;1062;52.538;13.400;2023-05-29T08:06:28;24.60;75.80
2112;DHT22;1062;52.538;13.400;2023-05-29T08:08:54;25.00;75.90
2112;DHT22;1062;52.538;13.400;2023-05-29T08:11:21;24.80;74.60
2112;DHT22;1062;52.538;13.400;2023-05-29T08:13:47;24.10;79.10
2112;DHT22;1062;52.538;13.400;2023-05-29T08:16:12;24.90;75.70
2112;DHT22;1062;52.538;13.400;2023-05-29T08:18:39;24.70;77.10
2112;DHT22;1062;52.538;13.400;2023-05-29T08:21:05;24.10;77.70
2112;DHT22;1062;52.538;13.400;2023-05-29T08:23:32;23.80;78.20
2112;DHT22;1062;52.538;13.400;2023-05-29T08:25:57;23.70;77.80
2112;DHT22;1062;52.538;13.400;2023-05-29T08:28:23;24.40;76.60
2112;DHT22;1062;52.538;13.400;2023-05-29T08:30:49;24.50;74.20
2112;DHT22;1062;52.538;13.400;2023-05-29T08:33:15;25.30;73.50
2112;DHT22;1062;52.538;13.400;2023-05-29T08:35:40;25.00;74.40
2112;DHT22;1062;52.538;13.400;2023-05-29T08:38:06;24.40;73.70
2112;DHT22;1062;52.538;13.400;2023-05-29T08:40:32;25.20;70.30
2112;DHT22;1062;52.538;13.400;2023-05-29T08:43:01;25.20;73.40
2112;DHT22;1062;52.538;13.400;2023-05-29T08:45:29;25.20;73.10
2112;DHT22;1062;52.538;13.400;2023-05-29T08:47:55;25.70;70.40
2112;DHT22;1062;52.538;13.400;2023-05-29T08:50:23;24.60;70.50
2112;DHT22;1062;52.538;13.400;2023-05-29T08:52:49;24.70;71.70
2112;DHT22;1062;52.538;13.400;2023-05-29T08:55:15;26.00;69.60
2112;DHT22;1062;52.538;13.400;2023-05-29T08:57:42;24.40;72.00
2112;DHT22;1062;52.538;13.400;2023-05-29T09:00:09;25.10;74.60
2112;DHT22;1062;52.538;13.400;2023-05-29T09:02:39;25.80;70.80
2112;DHT22;1062;52.538;13.400;2023-05-29T09:05:05;25.40;72.80
2112;DHT22;1062;52.538;13.400;2023-05-29T09:07:32;25.50;70.60
2112;DHT22;1062;52.538;13.400;2023-05-29T09:09:58;25.00;71.80
2112;DHT22;1062;52.538;13.400;2023-05-29T09:12:24;25.40;70.60
2112;DHT22;1062;52.538;13.400;2023-05-29T09:14:50;26.90;69.60
2112;DHT22;1062;52.538;13.400;2023-05-29T09:17:16;26.00;70.20
2112;DHT22;1062;52.538;13.400;2023-05-29T09:19:42;26.30;69.30
2112;DHT22;1062;52.538;13.400;2023-05-29T09:22:14;25.40;70.90
2112;DHT22;1062;52.538;13.400;2023-05-29T09:24:46;24.80;73.60
2112;DHT22;1062;52.538;13.400;2023-05-29T09:27:12;25.10;71.10
2112;DHT22;1062;52.538;13.400;2023-05-29T09:29:42;25.40;70.60
2112;DHT22;1062;52.538;13.400;2023-05-29T09:32:09;23.90;74.40
2112;DHT22;1062;52.538;13.400;2023-05-29T09:34:35;24.20;73.30
2112;DHT22;1062;52.538;13.400;2023-05-29T09:37:06;23.80;73.60
2112;DHT22;1062;52.538;13.400;2023-05-29T09:40:04;24.60;71.40
2112;DHT22;1062;52.538;13.400;2023-05-29T09:42:31;23.90;72.90
2112;DHT22;1062;52.538;13.400;2023-05-29T09:44:56;23.70;71.00
2112;DHT22;1062;52.538;13.400;2023-05-29T09:47:25;23.20;74.30
2112;DHT22;1062;52.538;13.400;2023-05-29T09:49:51;24.00;74.30
2112;DHT22;1062;52.538;13.400;2023-05-29T09:52:21;24.60;74.00
2112;DHT22;1062;52.538;13.400;2023-05-29T09:54:47;25.50;70.10
2112;DHT22;1062;52.538;13.400;2023-05-29T09:57:15;26.00;66.90
2112;DHT22;1062;52.538;13.400;2023-05-29T09:59:43;25.70;67.60
2112;DHT22;1062;52.538;13.400;2023-05-29T10:02:17;25.70;66.70
2112;DHT22;1062;52.538;13.400;2023-05-29T10:04:43;24.60;69.40
2112;DHT22;1062;52.538;13.400;2023-05-29T10:07:20;24.70;69.90
2112;DHT22;1062;52.538;13.400;2023-05-29T10:09:49;24.70;69.80
2112;DHT22;1062;52.538;13.400;2023-05-29T10:12:20;24.20;73.60
2112;DHT22;1062;52.538;13.400;2023-05-29T10:14:49;23.50;72.30
2112;DHT22;1062;52.538;13.400;2023-05-29T10:17:18;22.90;72.60
2112;DHT22;1062;52.538;13.400;2023-05-29T10:19:48;22.80;73.20
2112;DHT22;1062;52.538;13.400;2023-05-29T10:22:18;22.60;70.00
2112;DHT22;1062;52.538;13.400;2023-05-29T10:24:46;22.60;72.30
2112;DHT22;1062;52.538;13.400;2023-05-29T10:27:13;22.50;70.50
2112;DHT22;1062;52.538;13.400;2023-05-29T10:29:49;22.90;71.10
2112;DHT22;1062;52.538;13.400;2023-05-29T10:35:31;24.50;67.80
2112;DHT22;1062;52.538;13.400;2023-05-29T10:38:10;23.80;68.80
2112;DHT22;1062;52.538;13.400;2023-05-29T10:40:37;23.40;67.80
2112;DHT22;1062;52.538;13.400;2023-05-29T10:43:02;23.20;68.00
2112;DHT22;1062;52.538;13.400;2023-05-29T10:50:46;22.90;71.60
2112;DHT22;1062;52.538;13.400;2023-05-29T10:53:23;22.60;72.60
2112;DHT22;1062;52.538;13.400;2023-05-29T10:55:50;22.70;73.10
2112;DHT22;1062;52.538;13.400;2023-05-29T10:58:23;23.20;71.50
2112;DHT22;1062;52.538;13.400;2023-05-29T11:00:50;23.50;70.70
2112;DHT22;1062;52.538;13.400;2023-05-29T11:03:19;23.60;70.90
2112;DHT22;1062;52.538;13.400;2023-05-29T11:06:05;23.70;70.60
2112;DHT22;1062;52.538;13.400;2023-05-29T11:09:03;23.50;70.20
2112;DHT22;1062;52.538;13.400;2023-05-29T11:11:33;23.30;67.10
2112;DHT22;1062;52.538;13.400;2023-05-29T11:14:03;23.70;69.60
2112;DHT22;1062;52.538;13.400;2023-05-29T11:18:56;23.60;68.90
2112;DHT22;1062;52.538;13.400;2023-05-29T11:21:53;23.30;69.60
2112;DHT22;1062;52.538;13.400;2023-05-29T11:24:25;23.20;70.20
2112;DHT22;1062;52.538;13.400;2023-05-29T11:26:52;22.80;71.80
2112;DHT22;1062;52.538;13.400;2023-05-29T11:29:24;22.20;69.20
2112;DHT22;1062;52.538;13.400;2023-05-29T11:32:12;21.90;72.30
2112;DHT22;1062;52.538;13.400;2023-05-29T11:34:40;21.70;71.70
2112;DHT22;1062;52.538;13.400;2023-05-29T11:37:06;21.90;71.80
2112;DHT22;1062;52.538;13.400;2023-05-29T11:39:36;21.90;71.20
2112;DHT22;1062;52.538;13.400;2023-05-29T11:42:02;22.10;72.80
2112;DHT22;1062;52.538;13.400;2023-05-29T11:44:28;22.60;73.00
2112;DHT22;1062;52.538;13.400;2023-05-29T11:47:04;22.80;74.20
2112;DHT22;1062;52.538;13.400;2023-05-29T11:49:31;23.10;72.40
2112;DHT22;1062;52.538;13.400;2023-05-29T11:52:08;23.30;72.30
2112;DHT22;1062;52.538;13.400;2023-05-29T11:54:34;23.20;70.80
2112;DHT22;1062;52.538;13.400;2023-05-29T11:57:03;23.40;70.60
2112;DHT22;1062;52.538;13.400;2023-05-29T11:59:34;23.30;71.00
2112;DHT22;1062;52.538;13.400;2023-05-29T12:02:02;22.80;68.60
2112;DHT22;1062;52.538;13.400;2023-05-29T12:04:28;23.10;70.70
2112;DHT22;1062;52.538;13.400;2023-05-29T12:06:54;23.40;70.30
2112;DHT22;1062;52.538;13.400;2023-05-29T12:09:27;23.70;66.50
2112;DHT22;1062;52.538;13.400;2023-05-29T12:12:00;23.30;64.50
2112;DHT22;1062;52.538;13.400;2023-05-29T12:14:26;23.40;67.50
2112;DHT22;1062;52.538;13.400;2023-05-29T12:16:51;23.00;69.70
2112;DHT22;1062;52.538;13.400;2023-05-29T12:19:17;23.40;70.70
2112;DHT22;1062;52.538;13.400;2023-05-29T12:21:43;23.40;70.40
2112;DHT22;1062;52.538;13.400;2023-05-29T12:24:10;23.20;71.10
2112;DHT22;1062;52.538;13.400;2023-05-29T12:26:35;22.90;71.00
2112;DHT22;1062;52.538;13.400;2023-05-29T12:29:04;22.80;71.10
2112;DHT22;1062;52.538;13.400;2023-05-29T12:31:33;22.80;71.80
2112;DHT22;1062;52.538;13.400;2023-05-29T12:34:01;23.10;70.90
2112;DHT22;1062;52.538;13.400;2023-05-29T12:36:27;23.20;68.20
2112;DHT22;1062;52.538;13.400;2023-05-29T12:38:52;23.10;67.90
2112;DHT22;1062;52.538;13.400;2023-05-29T12:41:28;22.80;69.10
2112;DHT22;1062;52.538;13.400;2023-05-29T12:43:55;23.20;65.40
2112;DHT22;1062;52.538;13.400;2023-05-29T12:46:22;23.00;66.60
2112;DHT22;1062;52.538;13.400;2023-05-29T12:48:48;23.20;65.40
2112;DHT22;1062;52.538;13.400;2023-05-29T12:51:17;23.40;67.30
2112;DHT22;1062;52.538;13.400;2023-05-29T12:53:43;23.50;67.00
2112;DHT22;1062;52.538;13.400;2023-05-29T12:56:08;23.40;68.50
2112;DHT22;1062;52.538;13.400;2023-05-29T12:58:34;23.20;68.50
2112;DHT22;1062;52.538;13.400;2023-05-29T13:00:59;23.10;68.80
2112;DHT22;1062;52.538;13.400;2023-05-29T13:03:25;23.40;70.10
2112;DHT22;1062;52.538;13.400;2023-05-29T13:05:51;23.20;68.10
2112;DHT22;1062;52.538;13.400;2023-05-29T13:08:18;23.20;68.70
2112;DHT22;1062;52.538;13.400;2023-05-29T13:10:44;23.20;68.30
2112;DHT22;1062;52.538;13.400;2023-05-29T13:13:11;22.50;68.30
2112;DHT22;1062;52.538;13.400;2023-05-29T13:15:37;22.90;64.90
2112;DHT22;1062;52.538;13.400;2023-05-29T13:18:05;22.70;64.30
2112;DHT22;1062;52.538;13.400;2023-05-29T13:20:31;22.90;64.20
2112;DHT22;1062;52.538;13.400;2023-05-29T13:22:57;22.80;65.20
2112;DHT22;1062;52.538;13.400;2023-05-29T13:25:23;22.80;66.10
2112;DHT22;1062;52.538;13.400;2023-05-29T13:27:51;22.60;67.50
2112;DHT22;1062;52.538;13.400;2023-05-29T13:30:17;22.60;68.70
2112;DHT22;1062;52.538;13.400;2023-05-29T13:32:43;23.00;68.00
2112;DHT22;1062;52.538;13.400;2023-05-29T13:35:09;22.30;67.90
2112;DHT22;1062;52.538;13.400;2023-05-29T13:37:38;22.20;69.20
2112;DHT22;1062;52.538;13.400;2023-05-29T13:40:05;22.70;70.00
2112;DHT22;1062;52.538;13.400;2023-05-29T13:42:31;22.80;69.90
2112;DHT22;1062;52.538;13.400;2023-05-29T13:44:57;22.70;69.40
2112;DHT22;1062;52.538;13.400;2023-05-29T13:47:23;23.00;69.40
2112;DHT22;1062;52.538;13.400;2023-05-29T13:49:49;23.20;68.90
2112;DHT22;1062;52.538;13.400;2023-05-29T13:52:15;22.80;66.80
2112;DHT22;1062;52.538;13.400;2023-05-29T13:54:41;22.10;68.60
2112;DHT22;1062;52.538;13.400;2023-05-29T13:57:07;22.70;67.10
2112;DHT22;1062;52.538;13.400;2023-05-29T13:59:34;22.80;66.50
2112;DHT22;1062;52.538;13.400;2023-05-29T14:02:00;22.30;67.60
2112;DHT22;1062;52.538;13.400;2023-05-29T14:04:26;22.80;66.90
2112;DHT22;1062;52.538;13.400;2023-05-29T14:06:52;22.90;68.50
2112;DHT22;1062;52.538;13.400;2023-05-29T14:09:18;23.00;72.00
2112;DHT22;1062;52.538;13.400;2023-05-29T14:11:55;22.90;68.80
2112;DHT22;1062;52.538;13.400;2023-05-29T14:14:21;22.90;67.10
2112;DHT22;1062;52.538;13.400;2023-05-29T14:16:48;22.80;67.10
2112;DHT22;1062;52.538;13.400;2023-05-29T14:19:14;23.10;68.00
2112;DHT22;1062;52.538;13.400;2023-05-29T14:21:40;23.30;66.00
2112;DHT22;1062;52.538;13.400;2023-05-29T14:24:05;23.20;67.10
2112;DHT22;1062;52.538;13.400;2023-05-29T14:26:32;22.80;68.40
2112;DHT22;1062;52.538;13.400;2023-05-29T14:28:58;22.60;69.40
2112;DHT22;1062;52.538;13.400;2023-05-29T14:31:23;22.50;69.40
2112;DHT22;1062;52.538;13.400;2023-05-29T14:33:49;22.30;69.40
2112;DHT22;1062;52.538;13.400;2023-05-29T14:36:15;22.60;69.10
2112;DHT22;1062;52.538;13.400;2023-05-29T14:38:40;22.40;69.50
2112;DHT22;1062;52.538;13.400;2023-05-29T14:41:08;22.70;68.10
2112;DHT22;1062;52.538;13.400;2023-05-29T14:43:33;22.50;69.60
2112;DHT22;1062;52.538;13.400;2023-05-29T14:45:59;22.40;66.40
2112;DHT22;1062;52.538;13.400;2023-05-29T14:48:25;22.30;66.40
2112;DHT22;1062;52.538;13.400;2023-05-29T14:50:50;22.20;67.30
2112;DHT22;1062;52.538;13.400;2023-05-29T14:53:16;22.40;68.90
2112;DHT22;1062;52.538;13.400;2023-05-29T14:55:42;22.50;67.80
2112;DHT22;1062;52.538;13.400;2023-05-29T14:58:08;22.50;67.60
2112;DHT22;1062;52.538;13.400;2023-05-29T15:00:33;22.40;66.30
2112;DHT22;1062;52.538;13.400;2023-05-29T15:02:59;22.60;64.60
2112;DHT22;1062;52.538;13.400;2023-05-29T15:05:26;22.40;65.80
2112;DHT22;1062;52.538;13.400;2023-05-29T15:07:52;22.40;65.20
2112;DHT22;1062;52.538;13.400;2023-05-29T15:10:20;22.10;65.60
2112;DHT22;1062;52.538;13.400;2023-05-29T15:12:45;22.20;65.20
2112;DHT22;1062;52.538;13.400;2023-05-29T15:15:11;22.20;65.20
2112;DHT22;1062;52.538;13.400;2023-05-29T15:17:37;22.10;66.00
2112;DHT22;1062;52.538;13.400;2023-05-29T15:20:04;22.00;66.50
2112;DHT22;1062;52.538;13.400;2023-05-29T15:22:31;22.10;67.00
2112;DHT22;1062;52.538;13.400;2023-05-29T15:24:56;22.00;66.00
2112;DHT22;1062;52.538;13.400;2023-05-29T15:27:22;21.70;66.50
2112;DHT22;1062;52.538;13.400;2023-05-29T15:29:47;21.40;67.70
2112;DHT22;1062;52.538;13.400;2023-05-29T15:32:13;21.50;67.90
2112;DHT22;1062;52.538;13.400;2023-05-29T15:34:39;21.50;67.20
2112;DHT22;1062;52.538;13.400;2023-05-29T15:37:06;21.70;67.90
2112;DHT22;1062;52.538;13.400;2023-05-29T15:39:31;21.90;66.50
2112;DHT22;1062;52.538;13.400;2023-05-29T15:41:57;21.80;66.90
2112;DHT22;1062;52.538;13.400;2023-05-29T15:44:22;21.70;66.60
2112;DHT22;1062;52.538;13.400;2023-05-29T15:46:48;21.60;67.90
2112;DHT22;1062;52.538;13.400;2023-05-29T15:49:13;21.70;67.80
2112;DHT22;1062;52.538;13.400;2023-05-29T15:51:39;21.60;68.60
2112;DHT22;1062;52.538;13.400;2023-05-29T15:54:06;21.50;69.10
2112;DHT22;1062;52.538;13.400;2023-05-29T15:56:32;21.50;69.10
2112;DHT22;1062;52.538;13.400;2023-05-29T15:58:58;21.40;69.80
2112;DHT22;1062;52.538;13.400;2023-05-29T16:01:23;21.30;68.90
2112;DHT22;1062;52.538;13.400;2023-05-29T16:03:49;21.30;67.40
2112;DHT22;1062;52.538;13.400;2023-05-29T16:06:15;21.30;67.70
2112;DHT22;1062;52.538;13.400;2023-05-29T16:08:41;21.10;68.80